WetterOnline ( http://www.wetteronline.de )

Wetter aktuell Waibstadt

Aktuelles Wetter: Waibstadt (237m)

6-stündlich | Neueste Meldungen
Ortszeit Temperatur Wetter
Fr, 21.09. 20:00 12.4° C wolkig
Fr, 21.09. 14:00 24.7° C bedeckt
Fr, 21.09. 8:00 14.0° C wolkig
Fr, 21.09. 2:00 15.6° C leicht bewölkt
Do, 20.09. 20:00 23.2° C leicht bewölkt
Do, 20.09. 14:00 28.1° C wolkenlos
Do, 20.09. 8:00 15.0° C wolkig
Do, 20.09. 2:00 17.4° C leicht bewölkt
Ortszeit Temperatur Wetter
Fr, 21.09. 23:00 12.2° C bedeckt
Fr, 21.09. 22:50 12.2° C bedeckt
Fr, 21.09. 22:40 12.3° C bedeckt
Fr, 21.09. 22:30 12.2° C bedeckt
Fr, 21.09. 22:20 12.2° C bedeckt
Fr, 21.09. 22:10 12.4° C bedeckt
Fr, 21.09. 22:00 12.4° C wolkig
Fr, 21.09. 21:30 12.6° C bewölkt
Fr, 21.09. 21:00 12.5° C wolkig
Fr, 21.09. 20:30 12.5° C bewölkt
Fr, 21.09. 20:00 12.4° C wolkig
Ortszeit Relative Feuchte Sichtweite
Fr, 21.09. 20:00 92% 28 km
Fr, 21.09. 14:00 49% 35 km
Fr, 21.09. 8:00 87% 17 km
Fr, 21.09. 2:00 80% 25 km
Do, 20.09. 20:00 50% 40 km
Do, 20.09. 14:00 42% 35 km
Do, 20.09. 8:00 87% 19 km
Do, 20.09. 2:00 75% 28 km
Ortszeit Relative Feuchte Sichtweite
Fr, 21.09. 23:00 90% 30 km
Fr, 21.09. 22:50 90% -
Fr, 21.09. 22:40 89% -
Fr, 21.09. 22:30 92% 24 km
Fr, 21.09. 22:20 92% -
Fr, 21.09. 22:10 91% -
Fr, 21.09. 22:00 92% 15 km
Fr, 21.09. 21:30 94% 17 km
Fr, 21.09. 21:00 94% 20 km
Fr, 21.09. 20:30 95% 14 km
Fr, 21.09. 20:00 92% 28 km
Ortszeit Niederschlagsmenge Niederschlagsart
Fr, 21.09. 20:00 3 l/m2 in 12 Std. Regen
Fr, 21.09. 14:00 0.0 l/m2 in 6 Std. -
Fr, 21.09. 8:00 0.0 l/m2 in 12 Std. -
Fr, 21.09. 2:00 0.0 l/m2 in 6 Std. -
Do, 20.09. 20:00 0.0 l/m2 in 12 Std. -
Do, 20.09. 14:00 0.0 l/m2 in 6 Std. -
Do, 20.09. 8:00 0.0 l/m2 in 12 Std. -
Do, 20.09. 2:00 0.0 l/m2 in 6 Std. -
Ortszeit Niederschlagsmenge Niederschlagsart
Fr, 21.09. 23:00 0.0 l/m2 in 1 Std. -
Fr, 21.09. 22:50 keine Meldung -
Fr, 21.09. 22:40 keine Meldung -
Fr, 21.09. 22:30 0.0 l/m2 in 1 Std. -
Fr, 21.09. 22:20 keine Meldung -
Fr, 21.09. 22:10 keine Meldung -
Fr, 21.09. 22:00 0.0 l/m2 in 1 Std. -
Fr, 21.09. 21:30 0.0 l/m2 in 1 Std. -
Fr, 21.09. 21:00 0.0 l/m2 in 1 Std. -
Fr, 21.09. 20:30 0.0 l/m2 in 1 Std. -
Fr, 21.09. 20:00 0.0 l/m2 in 1 Std. Regen
Ortszeit Stärke Spitze Richtung
km/h Bft. km/h Grad Sektor
Fr, 21.09. 20:00 19 3 65 200° S
Fr, 21.09. 14:00 22 4 39 240° SW
Fr, 21.09. 8:00 7 2 11 70° O
Fr, 21.09. 2:00 6 1 9 70° O
Do, 20.09. 20:00 7 2 32 240° SW
Do, 20.09. 14:00 14 3 25 220° SW
Do, 20.09. 8:00 0 0 7 - -
Do, 20.09. 2:00 4 1 14 100° O
Ortszeit Stärke Spitze Richtung
km/h Bft. km/h Grad Sektor
Fr, 21.09. 23:00 13 3 20 220° SW
Fr, 21.09. 22:50 13 3 - 220° SW
Fr, 21.09. 22:40 14 3 - 210° SW
Fr, 21.09. 22:30 11 2 18 200° S
Fr, 21.09. 22:20 11 2 - 200° S
Fr, 21.09. 22:10 13 3 - 200° S
Fr, 21.09. 22:00 14 3 29 200° S
Fr, 21.09. 21:30 17 3 30 210° SW
Fr, 21.09. 21:00 20 4 35 220° SW
Fr, 21.09. 20:30 20 4 30 220° SW
Fr, 21.09. 20:00 19 3 30 200° S
Ortszeit Untergrenze Bedeckung Gattung
total tief tief mittel hoch
Fr, 21.09. 20:00 300 m 8/8 2/8 - - -
Fr, 21.09. 14:00 3600 m 8/8 8/8 - - -
Fr, 21.09. 8:00 7200 m 7/8 0/8 - - -
Fr, 21.09. 2:00 9000 m 5/8 0/8 - - -
Do, 20.09. 20:00 9000 m 4/8 0/8 - - -
Do, 20.09. 14:00 10500 m 0/8 0/8 - - -
Do, 20.09. 8:00 8100 m 8/8 0/8 - - -
Do, 20.09. 2:00 10500 m 6/8 0/8 - - -
Ortszeit Bedeckungsgrad in Achtel und Wolkenuntergrenze
Fr, 21.09. 23:00 8(5700m)
Fr, 21.09. 22:50 8(5700m)
Fr, 21.09. 22:40 8(5700m)
Fr, 21.09. 22:30 8(5400m) 8(6000m)
Fr, 21.09. 22:20 8(5400m)
Fr, 21.09. 22:10 8(5100m)
Fr, 21.09. 22:00 1(300m) 8(5100m)
Fr, 21.09. 21:30 6(240m) 8(5700m) 8(7800m)
Fr, 21.09. 21:00 1(150m) 7(6000m) 8(7500m)
Fr, 21.09. 20:30 6(180m) 7(270m) 8(7200m)
Fr, 21.09. 20:00 2(300m) 7(7200m) 8(8100m)
Ortszeit Luftdruck NN (hPa) Tendenz (hPa in 3 Std.)
Fr, 21.09. 20:00 1017 + 4,6
Fr, 21.09. 14:00 1010 - 0,9
Fr, 21.09. 8:00 1012 - 1,3
Fr, 21.09. 2:00 1014 - 1,5
Do, 20.09. 20:00 1015 - 1,2
Do, 20.09. 14:00 1018 - 1,6
Do, 20.09. 8:00 1021 + 0,6
Do, 20.09. 2:00 1020 + 0,2
Ortszeit Luftdruck NN (hPa) Tendenz (hPa in 3 Std.)
Fr, 21.09. 23:00 1020 + 3,2
Fr, 21.09. 22:50 1020 keine Meldung
Fr, 21.09. 22:40 1020 keine Meldung
Fr, 21.09. 22:30 1019 + 3,3
Fr, 21.09. 22:20 1019 keine Meldung
Fr, 21.09. 22:10 1019 keine Meldung
Fr, 21.09. 22:00 1019 + 3,1
Fr, 21.09. 21:30 1018 + 2,8
Fr, 21.09. 21:00 1018 + 3,2
Fr, 21.09. 20:30 1017 + 3,6
Fr, 21.09. 20:00 1017 + 4,6
Ortszeit Schneehöhe (cm)
Fr, 21.09. 20:00 -
Fr, 21.09. 14:00 -
Fr, 21.09. 8:00 -
Fr, 21.09. 2:00 -
Do, 20.09. 20:00 -
Do, 20.09. 14:00 -
Do, 20.09. 8:00 -
Do, 20.09. 2:00 -
Ortszeit Schneehöhe (cm)
Fr, 21.09. 23:00 -
Fr, 21.09. 22:50 -
Fr, 21.09. 22:40 -
Fr, 21.09. 22:30 -
Fr, 21.09. 22:20 -
Fr, 21.09. 22:10 -
Fr, 21.09. 22:00 -
Fr, 21.09. 21:30 -
Fr, 21.09. 21:00 -
Fr, 21.09. 20:30 -
Fr, 21.09. 20:00 -
Link zu dieser Seite / Seite empfehlen

Das Wetter in ...